Time;durP1;ratioP1;P1;durP2;ratioP2;P2;SDS_P1;SDS_P2;PMS_P1;PMS_P2;Temp;Humidity;BMP_temperature;BMP_pressure;BME280_temperature;BME280_humidity;BME280_pressure;Samples;Min_cycle;Max_cycle;Signal;HPM_P1;HPM_P2
2021/10/07 00:00:53;;;;;;;26.83;15.53;;;11.60;99.90;;;;;;4403976;28;659193;-67
2021/10/07 00:03:40;;;;;;;23.45;15.27;;;11.60;99.90;;;;;;4397252;28;658739;-68
2021/10/07 00:06:28;;;;;;;22.10;15.07;;;11.70;99.90;;;;;;4419386;28;659359;-68
2021/10/07 00:09:15;;;;;;;23.63;14.60;;;11.60;99.90;;;;;;4406137;28;658508;-68
2021/10/07 00:12:05;;;;;;;24.60;14.90;;;11.70;99.90;;;;;;4426660;28;660077;-68
2021/10/07 00:14:52;;;;;;;24.67;16.37;;;11.70;99.90;;;;;;4411564;28;659498;-68
2021/10/07 00:17:43;;;;;;;33.07;17.10;;;11.70;99.90;;;;;;4418029;28;658600;-68
2021/10/07 00:20:31;;;;;;;24.50;16.60;;;11.70;99.90;;;;;;4412236;28;659372;-67
2021/10/07 00:23:23;;;;;;;25.97;16.10;;;11.70;99.90;;;;;;4429457;28;659543;-67
2021/10/07 00:26:11;;;;;;;24.23;16.67;;;11.80;99.90;;;;;;4385251;28;658935;-68
2021/10/07 00:29:04;;;;;;;24.53;16.07;;;11.80;99.90;;;;;;4426012;28;659958;-68
2021/10/07 00:31:54;;;;;;;28.17;16.77;;;11.70;99.90;;;;;;4379912;28;659127;-68
2021/10/07 00:40:51;;;;;;;29.70;16.87;;;11.70;99.90;;;;;;4387697;28;658553;-68
2021/10/07 00:43:38;;;;;;;26.70;17.03;;;11.70;99.90;;;;;;4429287;28;659282;-67
2021/10/07 00:46:28;;;;;;;31.03;17.50;;;11.70;99.90;;;;;;4413201;28;658815;-68
2021/10/07 00:49:16;;;;;;;28.33;17.77;;;11.70;99.90;;;;;;4412087;28;658507;-68
2021/10/07 00:52:04;;;;;;;28.23;18.17;;;11.70;99.90;;;;;;4433221;28;659939;-68
2021/10/07 00:54:53;;;;;;;31.97;18.50;;;11.70;99.90;;;;;;4409387;28;658681;-68
2021/10/07 00:57:41;;;;;;;30.63;18.77;;;11.70;99.90;;;;;;4408583;28;658696;-68
2021/10/07 01:00:28;;;;;;;30.27;18.67;;;11.70;99.90;;;;;;4430359;28;659754;-68
2021/10/07 01:03:18;;;;;;;27.63;18.57;;;11.70;99.90;;;;;;4411236;28;658697;-68
2021/10/07 01:06:05;;;;;;;28.90;17.23;;;11.80;99.90;;;;;;4421612;28;658653;-68
2021/10/07 01:08:53;;;;;;;32.17;18.23;;;11.80;99.90;;;;;;4427020;28;659531;-67
2021/10/07 01:11:40;;;;;;;25.33;17.30;;;11.70;99.90;;;;;;4409547;28;658969;-68
2021/10/07 01:14:43;;;;;;;30.83;18.30;;;11.80;99.90;;;;;;4423811;28;660316;-68
2021/10/07 01:17:31;;;;;;;28.57;17.93;;;11.80;99.90;;;;;;4389126;28;659170;-68
2021/10/07 01:20:20;;;;;;;29.70;18.88;;;11.80;99.90;;;;;;4429287;28;659266;-67
2021/10/07 01:23:08;;;;;;;28.73;18.93;;;11.70;99.90;;;;;;4415175;28;660311;-68
2021/10/07 01:25:55;;;;;;;34.10;18.33;;;11.70;99.90;;;;;;4420030;28;658363;-68
2021/10/07 01:28:44;;;;;;;32.23;18.37;;;11.70;99.90;;;;;;4425372;28;659847;-68
2021/10/07 01:31:32;;;;;;;26.90;17.97;;;11.70;99.90;;;;;;4404253;28;659462;-68
2021/10/07 01:34:22;;;;;;;26.77;17.93;;;11.70;99.90;;;;;;4424060;28;658490;-68
2021/10/07 01:37:11;;;;;;;34.47;19.23;;;11.70;99.90;;;;;;4394379;28;659632;-68
2021/10/07 01:39:58;;;;;;;27.40;18.13;;;11.70;99.90;;;;;;4394104;28;659315;-68
2021/10/07 01:42:46;;;;;;;32.87;17.97;;;11.70;99.90;;;;;;4395471;28;658773;-68
2021/10/07 01:45:33;;;;;;;30.80;18.57;;;11.70;99.90;;;;;;4416407;28;659353;-69
2021/10/07 01:48:21;;;;;;;30.87;18.40;;;11.70;99.90;;;;;;4396330;28;658295;-69
2021/10/07 01:51:08;;;;;;;32.67;18.47;;;11.70;99.90;;;;;;4417180;28;659020;-68
2021/10/07 01:53:57;;;;;;;29.20;18.90;;;11.80;99.90;;;;;;4395278;28;658452;-68
2021/10/07 01:56:46;;;;;;;32.23;20.43;;;11.80;99.90;;;;;;4413745;28;658359;-69
2021/10/07 01:59:34;;;;;;;34.67;20.13;;;11.80;99.90;;;;;;4387605;28;659404;-68
2021/10/07 02:02:21;;;;;;;32.80;19.73;;;11.80;99.90;;;;;;4399270;28;658832;-68
2021/10/07 02:05:09;;;;;;;36.43;19.87;;;11.70;99.90;;;;;;4415048;28;658408;-69
2021/10/07 02:07:57;;;;;;;32.90;20.87;;;11.70;99.90;;;;;;4395082;28;659103;-68
2021/10/07 02:10:46;;;;;;;32.37;20.17;;;11.70;99.90;;;;;;4410212;28;659020;-67
2021/10/07 02:13:33;;;;;;;33.57;20.80;;;11.70;99.90;;;;;;4388079;28;659423;-68
2021/10/07 02:16:21;;;;;;;30.83;20.03;;;11.80;99.90;;;;;;4396359;28;658713;-68
2021/10/07 02:19:08;;;;;;;30.90;19.80;;;11.80;99.90;;;;;;4412580;28;659693;-68
2021/10/07 02:21:55;;;;;;;30.03;18.90;;;11.80;99.90;;;;;;4388133;28;658589;-69
2021/10/07 02:24:43;;;;;;;31.97;18.43;;;11.80;99.90;;;;;;4414296;28;659405;-68
2021/10/07 02:27:32;;;;;;;34.87;19.13;;;11.80;99.90;;;;;;4394874;28;659678;-68
2021/10/07 02:30:19;;;;;;;34.70;19.37;;;11.70;99.90;;;;;;4419001;28;658111;-68
2021/10/07 02:33:07;;;;;;;33.23;20.47;;;11.70;99.90;;;;;;4397422;28;659802;-68
2021/10/07 02:35:54;;;;;;;36.53;20.83;;;11.70;99.90;;;;;;4401124;28;658009;-68
2021/10/07 02:38:42;;;;;;;33.10;19.90;;;11.70;99.90;;;;;;4386977;28;658542;-68
2021/10/07 02:41:30;;;;;;;34.10;20.93;;;11.70;99.90;;;;;;4410237;28;658786;-68
2021/10/07 02:44:19;;;;;;;36.23;21.83;;;11.70;99.90;;;;;;4384225;28;659677;-68
2021/10/07 02:47:07;;;;;;;39.67;22.07;;;11.70;99.90;;;;;;4388704;28;660839;-68
2021/10/07 02:49:54;;;;;;;36.40;22.33;;;11.70;99.90;;;;;;4403587;28;658622;-68
2021/10/07 02:52:42;;;;;;;39.30;22.93;;;11.70;99.90;;;;;;4386393;28;658739;-68
2021/10/07 02:55:32;;;;;;;39.70;22.53;;;11.60;99.90;;;;;;4411116;28;658385;-68
2021/10/07 02:58:20;;;;;;;34.97;22.10;;;11.60;99.90;;;;;;4388897;28;659943;-67
2021/10/07 03:01:09;;;;;;;35.57;22.13;;;11.60;99.90;;;;;;4389425;28;659781;-68
2021/10/07 03:03:56;;;;;;;36.30;21.33;;;11.70;99.90;;;;;;4387974;28;658843;-68
2021/10/07 03:06:44;;;;;;;39.27;22.37;;;11.70;99.90;;;;;;4408442;28;659582;-67
2021/10/07 03:09:31;;;;;;;39.60;23.43;;;11.70;99.90;;;;;;4394763;28;659563;-68
2021/10/07 03:12:18;;;;;;;41.97;22.80;;;11.70;99.90;;;;;;4411034;28;659263;-68
2021/10/07 03:15:07;;;;;;;42.30;23.50;;;11.80;99.90;;;;;;4392007;28;658430;-68
2021/10/07 03:17:56;;;;;;;38.00;22.90;;;11.70;99.90;;;;;;4410104;28;658654;-68
2021/10/07 03:20:43;;;;;;;38.87;22.90;;;11.80;99.90;;;;;;4385894;28;658995;-68
2021/10/07 03:23:31;;;;;;;39.73;23.17;;;11.80;99.90;;;;;;4390833;28;660024;-69
2021/10/07 03:26:18;;;;;;;39.60;23.77;;;11.80;99.90;;;;;;4412022;28;659765;-68
2021/10/07 03:29:06;;;;;;;39.97;24.10;;;11.80;99.90;;;;;;4390533;28;658548;-68
2021/10/07 03:31:53;;;;;;;45.05;24.67;;;11.80;99.90;;;;;;4413467;28;659242;-68
2021/10/07 03:34:42;;;;;;;43.10;24.30;;;11.80;99.90;;;;;;4394083;28;659174;-68
2021/10/07 03:37:33;;;;;;;38.97;25.40;;;11.80;99.90;;;;;;4408928;28;658504;-69
2021/10/07 03:40:21;;;;;;;40.53;23.87;;;11.70;99.90;;;;;;4396125;28;660095;-68
2021/10/07 03:43:08;;;;;;;50.17;24.73;;;11.70;99.90;;;;;;4406949;28;659147;-68
2021/10/07 03:45:56;;;;;;;43.43;23.93;;;11.70;99.90;;;;;;4393374;28;659268;-68
2021/10/07 03:48:43;;;;;;;79.33;23.63;;;11.70;99.90;;;;;;4414749;28;659093;-68
2021/10/07 03:51:32;;;;;;;77.33;23.00;;;11.70;99.90;;;;;;4394061;28;659089;-69
2021/10/07 03:54:20;;;;;;;42.27;25.60;;;11.70;99.90;;;;;;4420657;28;658442;-68
2021/10/07 03:57:08;;;;;;;45.63;23.53;;;11.60;99.90;;;;;;4396683;28;659375;-68
2021/10/07 03:59:55;;;;;;;42.23;25.37;;;11.70;99.90;;;;;;4415837;28;658473;-68
2021/10/07 04:02:43;;;;;;;101.07;25.13;;;11.60;99.90;;;;;;4416005;28;659874;-68
2021/10/07 04:05:30;;;;;;;43.13;25.23;;;11.60;99.90;;;;;;4398638;28;659747;-68
2021/10/07 04:08:19;;;;;;;44.17;25.10;;;11.60;99.90;;;;;;4420687;28;659919;-68
2021/10/07 04:11:07;;;;;;;48.47;26.57;;;11.60;99.90;;;;;;4388477;28;658639;-68
2021/10/07 04:13:55;;;;;;;45.33;25.57;;;11.60;99.90;;;;;;4414533;28;659280;-67
2021/10/07 04:16:42;;;;;;;46.40;27.07;;;11.60;99.90;;;;;;4377886;28;659609;-68
2021/10/07 04:19:29;;;;;;;48.90;26.67;;;11.60;99.90;;;;;;4415829;28;658537;-67
2021/10/07 04:22:17;;;;;;;56.17;29.23;;;11.60;99.90;;;;;;4404141;28;658559;-67
2021/10/07 04:25:07;;;;;;;46.53;27.97;;;11.60;99.90;;;;;;4406310;28;659153;-68
2021/10/07 04:27:56;;;;;;;83.73;35.80;;;11.70;99.90;;;;;;4392460;28;659481;-67
2021/10/07 04:30:44;;;;;;;177.90;49.10;;;11.70;99.90;;;;;;4393099;28;659127;-67
2021/10/07 04:33:32;;;;;;;202.00;65.20;;;11.70;99.90;;;;;;4394521;28;659683;-68
2021/10/07 04:36:19;;;;;;;148.73;52.13;;;11.70;99.90;;;;;;4412474;28;659307;-67
2021/10/07 04:39:07;;;;;;;452.23;119.70;;;11.70;99.90;;;;;;4403554;28;660472;-67
2021/10/07 04:41:56;;;;;;;296.27;91.03;;;11.80;99.90;;;;;;4419827;28;660751;-67
2021/10/07 04:44:43;;;;;;;209.13;59.87;;;11.80;99.90;;;;;;4390501;28;660701;-67
2021/10/07 04:47:31;;;;;;;250.93;87.17;;;11.80;99.90;;;;;;4395853;28;660034;-67
2021/10/07 04:50:19;;;;;;;135.40;60.60;;;11.80;99.90;;;;;;4425462;28;659493;-67
2021/10/07 04:53:06;;;;;;;99.20;49.93;;;11.80;99.90;;;;;;4397665;28;659816;-67
2021/10/07 04:55:55;;;;;;;98.30;54.80;;;11.80;99.90;;;;;;4415472;28;659164;-67
2021/10/07 04:58:44;;;;;;;65.00;36.57;;;11.80;99.90;;;;;;4390554;28;659249;-67
2021/10/07 05:01:32;;;;;;;69.20;35.23;;;11.80;99.90;;;;;;4398517;28;658560;-67
2021/10/07 05:04:19;;;;;;;58.93;33.70;;;11.80;99.90;;;;;;4413943;28;658975;-67
2021/10/07 05:07:07;;;;;;;56.13;32.20;;;11.80;99.90;;;;;;4401897;28;659465;-67
2021/10/07 05:09:54;;;;;;;62.93;34.13;;;11.80;99.90;;;;;;4409656;28;658688;-67
2021/10/07 05:12:42;;;;;;;59.73;33.53;;;11.80;99.90;;;;;;4395758;28;658688;-67
2021/10/07 05:15:31;;;;;;;64.70;35.53;;;11.80;99.90;;;;;;4420599;28;659181;-68
2021/10/07 05:18:37;;;;;;;60.40;34.20;;;11.80;99.90;;;;;;4399646;28;659618;-67
2021/10/07 05:21:24;;;;;;;57.07;32.67;;;11.80;99.90;;;;;;4405735;28;658610;-67
2021/10/07 05:24:33;;;;;;;65.10;34.00;;;11.80;99.90;;;;;;4406168;28;658441;-67
2021/10/07 05:27:20;;;;;;;63.80;33.77;;;11.80;99.90;;;;;;4383886;28;658492;-67
2021/10/07 05:30:09;;;;;;;67.50;34.67;;;11.80;99.90;;;;;;4424395;28;659541;-67
2021/10/07 05:32:58;;;;;;;67.87;32.83;;;11.80;99.90;;;;;;4401408;28;658684;-68
2021/10/07 05:35:46;;;;;;;68.33;33.40;;;11.80;99.90;;;;;;4407043;28;659204;-67
2021/10/07 05:38:33;;;;;;;62.03;34.60;;;11.90;99.90;;;;;;4423958;28;659185;-67
2021/10/07 05:41:21;;;;;;;59.27;33.43;;;11.90;99.90;;;;;;4394189;28;658719;-67
2021/10/07 05:44:10;;;;;;;57.80;32.72;;;11.90;99.90;;;;;;4423307;28;658232;-67
2021/10/07 05:46:57;;;;;;;66.10;34.87;;;11.90;99.90;;;;;;4391742;28;659721;-67
2021/10/07 05:49:47;;;;;;;63.57;33.87;;;11.90;99.90;;;;;;4414919;28;658533;-68
2021/10/07 05:52:34;;;;;;;60.87;33.40;;;12.00;99.90;;;;;;4428261;28;658488;-67
2021/10/07 05:55:22;;;;;;;63.27;34.10;;;12.00;99.90;;;;;;4402445;28;658531;-67
2021/10/07 05:58:09;;;;;;;60.07;32.90;;;12.00;99.90;;;;;;4434333;28;659288;-68
2021/10/07 06:00:57;;;;;;;59.27;33.73;;;12.00;99.90;;;;;;4405156;28;659548;-67
2021/10/07 06:03:44;;;;;;;57.90;33.07;;;12.00;99.90;;;;;;4425696;28;658409;-67
2021/10/07 06:06:33;;;;;;;63.47;33.73;;;12.20;99.90;;;;;;4408761;28;659416;-67
2021/10/07 06:09:21;;;;;;;64.07;35.67;;;12.20;99.90;;;;;;4416253;28;659267;-67
2021/10/07 06:12:09;;;;;;;69.83;36.93;;;12.30;99.90;;;;;;4433857;28;658770;-67
2021/10/07 06:14:56;;;;;;;63.65;35.85;;;12.30;99.90;;;;;;4410819;28;658707;-67
2021/10/07 06:17:44;;;;;;;58.63;33.53;;;12.40;99.90;;;;;;4414304;28;658316;-67
2021/10/07 06:20:33;;;;;;;62.80;36.13;;;12.40;99.90;;;;;;4408686;28;658511;-67
2021/10/07 06:23:23;;;;;;;58.97;34.77;;;12.40;99.90;;;;;;4419409;28;659043;-67
2021/10/07 06:26:11;;;;;;;62.50;37.10;;;12.50;99.90;;;;;;4424564;28;658758;-68
2021/10/07 06:28:58;;;;;;;62.70;34.17;;;12.60;99.90;;;;;;4427841;28;658949;-67
2021/10/07 06:31:46;;;;;;;58.97;34.07;;;12.70;99.90;;;;;;4405969;28;658833;-68
2021/10/07 06:34:33;;;;;;;52.27;32.33;;;12.80;99.90;;;;;;4424378;28;659693;-67
2021/10/07 06:37:21;;;;;;;62.83;35.10;;;12.90;99.90;;;;;;4394663;28;658900;-67
2021/10/07 06:40:10;;;;;;;45.90;27.43;;;13.00;99.90;;;;;;4419260;28;659761;-67
2021/10/07 06:42:58;;;;;;;54.03;34.00;;;13.10;99.90;;;;;;4394872;28;659288;-68
2021/10/07 06:45:46;;;;;;;41.50;27.57;;;13.20;99.90;;;;;;4397806;28;658538;-68
2021/10/07 06:48:34;;;;;;;38.33;23.40;;;13.20;99.90;;;;;;4401668;28;659485;-67
2021/10/07 06:51:22;;;;;;;37.10;22.87;;;13.30;99.90;;;;;;4392164;28;659175;-67
2021/10/07 06:54:11;;;;;;;33.57;21.33;;;13.40;99.90;;;;;;4400175;28;658888;-68
2021/10/07 06:57:00;;;;;;;27.90;18.70;;;13.40;99.90;;;;;;4417454;28;659483;-67
2021/10/07 06:59:47;;;;;;;32.43;18.17;;;13.50;99.90;;;;;;4387179;28;659975;-67
2021/10/07 07:02:36;;;;;;;28.50;18.37;;;13.60;99.90;;;;;;4416868;28;658512;-67
2021/10/07 07:05:24;;;;;;;28.77;16.87;;;13.70;99.90;;;;;;4411836;28;659171;-67
2021/10/07 07:08:11;;;;;;;30.07;18.20;;;13.70;99.90;;;;;;4399399;28;658499;-67
2021/10/07 07:10:59;;;;;;;28.60;17.53;;;13.80;99.90;;;;;;4426197;28;658604;-67
2021/10/07 07:13:48;;;;;;;33.93;19.17;;;13.80;99.90;;;;;;4406152;28;659565;-67
2021/10/07 07:16:36;;;;;;;40.70;20.77;;;13.90;99.90;;;;;;4403072;28;658692;-66
2021/10/07 07:19:23;;;;;;;28.77;16.57;;;13.90;99.90;;;;;;4421016;28;659226;-67
2021/10/07 07:22:11;;;;;;;30.67;17.03;;;13.80;99.90;;;;;;4398124;28;659627;-67
2021/10/07 07:24:59;;;;;;;31.30;17.50;;;13.80;99.90;;;;;;4426674;28;659932;-67
2021/10/07 07:27:47;;;;;;;30.10;17.47;;;13.70;99.90;;;;;;4405297;28;658565;-67
2021/10/07 07:30:36;;;;;;;32.57;18.43;;;13.70;99.90;;;;;;4422661;28;658765;-67
2021/10/07 07:33:27;;;;;;;32.92;17.73;;;13.70;99.90;;;;;;4397959;28;659938;-67
2021/10/07 07:36:14;;;;;;;37.23;21.13;;;13.60;99.90;;;;;;4394626;28;658940;-66
2021/10/07 07:39:02;;;;;;;33.63;19.47;;;13.60;99.90;;;;;;4384885;28;659620;-67
2021/10/07 07:41:51;;;;;;;37.43;19.17;;;13.60;99.90;;;;;;4416093;28;658592;-67
2021/10/07 07:44:40;;;;;;;39.70;21.23;;;13.60;99.90;;;;;;4417594;28;659038;-67
2021/10/07 07:47:29;;;;;;;31.70;19.07;;;13.50;99.90;;;;;;4396175;28;658909;-67
2021/10/07 07:50:18;;;;;;;39.53;19.67;;;13.50;99.90;;;;;;4387552;28;658404;-66
2021/10/07 07:53:06;;;;;;;38.53;21.40;;;13.50;99.90;;;;;;4398870;28;658598;-67
2021/10/07 07:55:54;;;;;;;37.77;21.03;;;13.50;99.90;;;;;;4402765;28;658573;-67
2021/10/07 07:58:42;;;;;;;41.53;22.67;;;13.40;99.90;;;;;;4387216;28;658742;-67
2021/10/07 08:01:31;;;;;;;45.07;22.23;;;13.30;99.90;;;;;;4408189;28;658241;-67
2021/10/07 08:04:20;;;;;;;51.33;24.33;;;13.30;99.90;;;;;;4398121;28;659153;-67
2021/10/07 08:07:08;;;;;;;56.50;26.60;;;13.30;99.90;;;;;;4394668;28;659569;-67
2021/10/07 08:09:56;;;;;;;58.30;27.93;;;13.20;99.90;;;;;;4396166;28;659343;-67
2021/10/07 08:12:44;;;;;;;45.17;22.90;;;13.20;99.90;;;;;;4413711;28;658645;-66
2021/10/07 08:15:32;;;;;;;49.90;24.23;;;13.10;99.90;;;;;;4395952;28;658299;-67
2021/10/07 08:18:20;;;;;;;49.50;23.93;;;13.10;99.90;;;;;;4415775;28;659444;-67
2021/10/07 08:21:10;;;;;;;40.30;20.97;;;13.10;99.90;;;;;;4393321;28;658989;-67
2021/10/07 08:23:58;;;;;;;48.90;22.07;;;13.10;99.90;;;;;;4396944;28;659732;-66
2021/10/07 08:26:46;;;;;;;40.60;21.77;;;13.10;99.90;;;;;;4409405;28;658911;-67
2021/10/07 08:29:34;;;;;;;38.67;21.30;;;13.20;99.90;;;;;;4419220;28;659236;-67
2021/10/07 08:32:22;;;;;;;38.20;21.47;;;13.20;99.90;;;;;;4386382;28;658295;-67
2021/10/07 08:35:10;;;;;;;37.83;19.57;;;13.20;99.90;;;;;;4412220;28;658535;-68
2021/10/07 08:38:00;;;;;;;38.37;18.47;;;13.20;99.90;;;;;;4390305;28;658964;-68
2021/10/07 08:40:48;;;;;;;35.13;18.27;;;13.20;99.90;;;;;;4395409;28;659775;-66
2021/10/07 08:43:36;;;;;;;36.97;19.30;;;13.20;99.90;;;;;;4393090;28;658722;-67
2021/10/07 08:46:23;;;;;;;36.07;18.63;;;13.30;99.90;;;;;;4412533;28;659827;-67
2021/10/07 08:49:14;;;;;;;33.63;17.30;;;13.40;99.90;;;;;;4396259;28;659294;-67
2021/10/07 08:52:02;;;;;;;36.53;18.03;;;13.40;99.90;;;;;;4388685;28;659320;-67
2021/10/07 08:54:51;;;;;;;35.77;17.83;;;13.40;99.90;;;;;;4415720;28;658173;-67
2021/10/07 08:57:39;;;;;;;38.23;17.67;;;13.50;99.90;;;;;;4400329;28;659365;-67
2021/10/07 09:00:27;;;;;;;38.30;17.93;;;13.50;99.90;;;;;;4397944;28;659411;-67
2021/10/07 09:03:19;;;;;;;40.63;19.63;;;13.50;99.90;;;;;;4402733;28;659550;-67
2021/10/07 09:06:13;;;;;;;43.13;20.63;;;13.60;99.90;;;;;;4365606;28;660050;-67
2021/10/07 09:09:01;;;;;;;44.00;19.90;;;13.60;99.90;;;;;;4379749;28;658782;-67
2021/10/07 09:11:54;;;;;;;43.10;21.42;;;13.70;99.90;;;;;;4416338;28;658498;-67
2021/10/07 09:14:42;;;;;;;42.60;21.10;;;14.00;99.90;;;;;;4366241;28;659775;-67
2021/10/07 09:17:31;;;;;;;42.30;22.07;;;14.10;99.90;;;;;;4416721;28;658614;-67
2021/10/07 09:20:32;;;;;;;43.33;21.43;;;14.20;99.90;;;;;;4407806;28;659226;-67
2021/10/07 09:23:20;;;;;;;44.97;22.17;;;14.20;99.90;;;;;;4384709;28;659281;-67
2021/10/07 09:26:09;;;;;;;41.67;20.13;;;14.30;99.90;;;;;;4385751;28;659237;-67
2021/10/07 09:28:59;;;;;;;44.20;20.70;;;14.40;99.90;;;;;;4396495;28;659539;-68
2021/10/07 09:31:47;;;;;;;38.03;20.33;;;14.40;99.90;;;;;;4399722;28;658829;-66
2021/10/07 09:34:43;;;;;;;40.03;20.03;;;14.50;99.90;;;;;;4409891;28;658680;-67
2021/10/07 09:37:33;;;;;;;34.30;19.23;;;14.50;99.90;;;;;;4365710;28;658561;-67
2021/10/07 09:40:21;;;;;;;35.80;20.50;;;14.60;99.90;;;;;;4393202;28;659153;-68
2021/10/07 09:43:09;;;;;;;34.17;19.77;;;14.70;99.90;;;;;;4406330;28;659390;-67
2021/10/07 09:45:58;;;;;;;32.40;19.93;;;14.80;99.90;;;;;;4378526;28;658565;-67
2021/10/07 09:48:46;;;;;;;35.57;19.93;;;14.80;99.90;;;;;;4385494;28;658505;-67
2021/10/07 09:51:38;;;;;;;39.27;20.57;;;14.90;99.90;;;;;;4412839;28;659312;-67
2021/10/07 09:54:27;;;;;;;35.97;19.20;;;15.00;99.90;;;;;;4356110;28;659000;-67
2021/10/07 09:57:15;;;;;;;32.20;19.40;;;15.00;99.90;;;;;;4401190;28;658718;-68
2021/10/07 10:00:05;;;;;;;35.73;20.23;;;15.10;99.90;;;;;;4402100;28;659209;-67
2021/10/07 10:02:55;;;;;;;35.13;18.40;;;15.20;99.90;;;;;;4390442;28;659054;-67
2021/10/07 10:05:44;;;;;;;33.13;17.53;;;15.30;99.90;;;;;;4385325;28;659510;-67
2021/10/07 10:08:32;;;;;;;28.88;15.90;;;15.40;94.70;;;;;;4380801;28;659270;-67
2021/10/07 10:11:20;;;;;;;26.73;16.20;;;15.80;99.90;;;;;;4409006;28;658691;-67
2021/10/07 10:14:08;;;;;;;21.23;13.47;;;16.40;89.30;;;;;;4378134;28;659447;-67
2021/10/07 10:16:56;;;;;;;22.10;13.40;;;16.50;38.70;;;;;;4393158;28;659240;-67
2021/10/07 10:19:46;;;;;;;27.13;14.17;;;16.60;99.90;;;;;;4406142;28;659637;-66
2021/10/07 10:22:34;;;;;;;18.27;12.90;;;16.50;99.90;;;;;;4377412;28;659135;-66
2021/10/07 10:25:22;;;;;;;18.88;12.18;;;17.00;99.90;;;;;;4382496;28;658483;-67
2021/10/07 10:28:10;;;;;;;22.73;13.10;;;17.60;99.90;;;;;;4410117;28;659104;-66
2021/10/07 10:31:03;;;;;;;25.07;12.23;;;17.90;99.90;;;;;;4395476;28;659492;-66
2021/10/07 10:33:51;;;;;;;27.13;14.27;;;17.90;99.90;;;;;;4380671;28;658599;-67
2021/10/07 10:36:41;;;;;;;25.07;12.57;;;18.10;99.90;;;;;;4405049;28;659564;-67
2021/10/07 10:39:30;;;;;;;19.33;11.90;;;18.50;99.90;;;;;;4387125;28;658932;-67
2021/10/07 10:42:24;;;;;;;19.75;11.85;;;18.80;99.90;;;;;;4382913;28;658855;-67
2021/10/07 10:45:12;;;;;;;19.87;12.87;;;19.00;99.90;;;;;;4368582;28;659894;-67
2021/10/07 10:48:00;;;;;;;15.10;11.33;;;19.20;99.90;;;;;;4409506;28;658219;-67
2021/10/07 10:51:00;;;;;;;23.33;14.50;;;19.40;99.90;;;;;;4390273;28;659181;-67
2021/10/07 10:53:51;;;;;;;28.10;15.97;;;19.20;99.90;;;;;;4374661;28;659354;-67
2021/10/07 10:56:57;;;;;;;35.73;17.83;;;19.50;99.90;;;;;;4382090;28;659517;-66
2021/10/07 10:59:46;;;;;;;39.60;19.70;;;19.50;99.90;;;;;;4392192;28;659067;-66
2021/10/07 11:02:34;;;;;;;33.73;16.57;;;19.30;99.90;;;;;;4391951;28;659238;-66
2021/10/07 11:05:23;;;;;;;21.67;13.60;;;19.40;99.90;;;;;;4390504;28;658718;-67
2021/10/07 11:08:18;;;;;;;20.27;13.20;;;19.60;99.90;;;;;;4400194;28;658665;-67
2021/10/07 11:11:08;;;;;;;22.27;13.20;;;19.80;99.90;;;;;;4373725;28;659103;-67
2021/10/07 11:13:55;;;;;;;26.23;14.23;;;19.90;99.90;;;;;;4403197;28;658555;-67
2021/10/07 11:16:46;;;;;;;40.87;18.07;;;19.80;99.90;;;;;;4413059;28;659797;-66
2021/10/07 11:19:33;;;;;;;19.47;11.70;;;19.70;99.90;;;;;;4398849;28;659294;-66
2021/10/07 11:22:22;;;;;;;18.90;10.07;;;19.70;99.90;;;;;;4393533;28;658570;-66
2021/10/07 11:25:10;;;;;;;41.33;14.87;;;20.00;99.90;;;;;;4414381;28;658537;-67
2021/10/07 11:27:59;;;;;;;15.40;10.90;;;20.40;99.90;;;;;;4391142;28;658545;-66
2021/10/07 11:30:47;;;;;;;17.05;10.20;;;20.30;99.90;;;;;;4405306;28;658668;-66
2021/10/07 11:33:34;;;;;;;16.37;9.77;;;19.90;99.90;;;;;;4412645;28;659261;-66
2021/10/07 11:36:23;;;;;;;15.93;10.03;;;19.40;99.90;;;;;;4391351;28;657731;-66
2021/10/07 11:39:10;;;;;;;15.50;10.00;;;19.10;99.90;;;;;;4402486;28;659273;-66
2021/10/07 11:41:58;;;;;;;16.33;10.50;;;19.00;99.90;;;;;;4430603;28;659772;-66
2021/10/07 11:44:47;;;;;;;13.17;9.80;;;18.90;99.90;;;;;;4411138;28;658715;-66
2021/10/07 11:47:38;;;;;;;15.60;9.63;;;19.50;99.90;;;;;;4417739;28;657636;-67
2021/10/07 11:50:26;;;;;;;13.93;9.87;;;19.80;99.90;;;;;;4398033;28;657384;-66
2021/10/07 11:53:15;;;;;;;16.33;10.40;;;20.40;99.90;;;;;;4417796;28;658719;-66
2021/10/07 11:56:03;;;;;;;15.73;9.30;;;20.70;99.90;;;;;;4387644;28;658967;-66
2021/10/07 11:58:53;;;;;;;17.77;10.43;;;20.80;99.90;;;;;;4392168;28;657615;-67
2021/10/07 12:01:42;;;;;;;17.57;9.07;;;20.80;99.90;;;;;;4396560;28;659077;-67
2021/10/07 12:04:30;;;;;;;13.40;8.57;;;21.20;99.90;;;;;;4414882;28;657756;-66
2021/10/07 12:07:18;;;;;;;13.83;7.93;;;21.60;99.90;;;;;;4388660;28;658937;-67
2021/10/07 12:10:07;;;;;;;14.07;7.90;;;21.90;99.90;;;;;;4391902;28;657918;-67
2021/10/07 12:13:14;;;;;;;11.60;8.20;;;22.30;99.90;;;;;;4411726;28;657750;-67
2021/10/07 12:16:03;;;;;;;12.57;8.38;;;22.60;99.90;;;;;;4387893;28;658143;-67
2021/10/07 12:18:54;;;;;;;18.97;8.47;;;22.90;99.90;;;;;;4413337;28;658084;-66
2021/10/07 12:21:42;;;;;;;19.27;9.47;;;22.80;99.90;;;;;;4401043;28;657797;-67
2021/10/07 12:24:30;;;;;;;16.67;9.60;;;22.60;99.90;;;;;;4409182;28;657178;-66
2021/10/07 12:27:18;;;;;;;16.97;10.20;;;22.30;99.90;;;;;;4386887;28;658986;-66
2021/10/07 12:30:07;;;;;;;17.27;9.83;;;21.50;99.90;;;;;;4400735;28;658475;-66
2021/10/07 12:33:10;;;;;;;16.40;9.67;;;20.80;99.90;;;;;;4415861;28;657870;-66
2021/10/07 12:36:01;;;;;;;24.00;11.80;;;20.30;99.90;;;;;;4379081;28;658834;-66
2021/10/07 12:38:51;;;;;;;19.53;9.00;;;20.30;99.90;;;;;;4417049;28;659079;-66
2021/10/07 12:41:40;;;;;;;12.10;8.50;;;20.90;99.90;;;;;;4418118;28;657770;-66
2021/10/07 12:44:28;;;;;;;20.73;8.83;;;21.00;99.90;;;;;;4414270;28;658729;-66
2021/10/07 12:47:18;;;;;;;16.90;8.53;;;21.00;99.90;;;;;;4418852;28;658645;-66
2021/10/07 12:50:14;;;;;;;17.47;9.40;;;20.80;99.90;;;;;;4424396;28;657739;-66
2021/10/07 12:53:03;;;;;;;14.37;7.87;;;20.50;99.90;;;;;;4418049;28;657487;-66
2021/10/07 12:56:18;;;;;;;14.40;8.13;;;20.50;99.90;;;;;;4426606;28;657752;-67
2021/10/07 12:59:07;;;;;;;17.50;8.50;;;20.70;99.90;;;;;;4388279;28;657639;-67
2021/10/07 13:01:54;;;;;;;21.87;8.73;;;21.40;99.90;;;;;;4436102;28;657448;-66
2021/10/07 13:04:45;;;;;;;19.27;8.90;;;22.00;99.90;;;;;;4417586;28;657770;-66
2021/10/07 13:07:32;;;;;;;13.23;7.30;;;22.10;98.70;;;;;;4390490;28;658716;-66
2021/10/07 13:10:22;;;;;;;16.50;8.63;;;21.90;97.40;;;;;;4394855;28;657684;-66
2021/10/07 13:13:10;;;;;;;12.23;7.63;;;22.50;96.80;;;;;;4412272;28;658089;-66
2021/10/07 13:15:57;;;;;;;13.57;7.07;;;22.30;96.40;;;;;;4390070;28;659261;-66
2021/10/07 13:18:45;;;;;;;13.13;7.43;;;22.70;94.70;;;;;;4412292;28;658053;-65
2021/10/07 13:21:33;;;;;;;19.23;8.67;;;21.80;94.30;;;;;;4393975;28;659459;-66
2021/10/07 13:24:21;;;;;;;14.03;7.80;;;21.00;95.60;;;;;;4403109;28;657290;-66
2021/10/07 13:27:10;;;;;;;17.80;8.57;;;20.30;96.90;;;;;;4416613;28;658645;-66
2021/10/07 13:29:58;;;;;;;19.60;8.10;;;19.90;97.60;;;;;;4392171;28;658323;-66
2021/10/07 13:32:47;;;;;;;15.20;8.27;;;19.50;99.30;;;;;;4398744;28;657663;-66
2021/10/07 13:35:35;;;;;;;15.57;8.13;;;20.60;98.70;;;;;;4418750;28;657092;-66
2021/10/07 13:38:23;;;;;;;18.77;8.93;;;21.30;96.50;;;;;;4408284;28;658731;-66
2021/10/07 13:41:11;;;;;;;18.40;7.90;;;20.60;96.40;;;;;;4403570;28;657434;-66
2021/10/07 13:44:00;;;;;;;15.97;8.07;;;19.70;97.10;;;;;;4415828;28;659014;-65
2021/10/07 13:46:47;;;;;;;17.90;7.87;;;18.90;98.50;;;;;;4391771;28;657987;-66
2021/10/07 13:49:35;;;;;;;16.53;8.13;;;18.30;99.90;;;;;;4414230;28;657357;-65
2021/10/07 13:52:26;;;;;;;18.70;8.40;;;18.10;99.90;;;;;;4387459;28;658856;-65
2021/10/07 13:55:13;;;;;;;13.70;7.40;;;17.90;99.90;;;;;;4392290;28;658400;-65
2021/10/07 13:58:02;;;;;;;15.40;8.00;;;17.50;99.90;;;;;;4402060;28;658015;-66
2021/10/07 14:00:51;;;;;;;12.00;6.90;;;17.30;99.90;;;;;;4419147;28;659143;-65
2021/10/07 14:03:39;;;;;;;15.60;7.80;;;17.00;99.90;;;;;;4391376;28;658221;-65
2021/10/07 14:06:26;;;;;;;16.73;7.83;;;16.60;99.90;;;;;;4402162;28;657397;-65
2021/10/07 14:09:14;;;;;;;22.20;7.90;;;16.30;99.90;;;;;;4428688;28;658451;-65
2021/10/07 14:12:02;;;;;;;27.97;7.83;;;15.90;99.90;;;;;;4404463;28;658047;-65